createdAt,value
2023-03-03T00:01:08.010Z,6.20
2023-03-03T00:06:20.823Z,6.20
2023-03-03T00:11:31.114Z,6.20
2023-03-03T00:16:42.329Z,6.10
2023-03-03T00:21:58.372Z,6.10
2023-03-03T00:27:29.993Z,6.10
2023-03-03T00:32:48.785Z,6.00
2023-03-03T00:37:56.269Z,5.90
2023-03-03T00:43:18.509Z,5.90
2023-03-03T00:48:31.349Z,5.80
2023-03-03T00:53:45.931Z,5.70
2023-03-03T00:58:49.484Z,5.70
2023-03-03T01:04:00.362Z,5.60
2023-03-03T01:09:05.274Z,5.50
2023-03-03T01:14:09.162Z,5.40
2023-03-03T01:19:11.964Z,5.40
2023-03-03T01:24:19.432Z,5.30
2023-03-03T01:29:24.492Z,5.20
2023-03-03T01:34:29.817Z,5.10
2023-03-03T01:39:37.757Z,5.00
2023-03-03T01:44:46.869Z,5.00
2023-03-03T01:49:53.666Z,4.90
2023-03-03T01:55:03.221Z,4.90
2023-03-03T02:00:07.910Z,4.90
2023-03-03T02:05:11.627Z,4.90
2023-03-03T02:10:18.973Z,4.90
2023-03-03T02:15:24.495Z,4.90
2023-03-03T02:20:50.326Z,4.80
2023-03-03T02:26:09.809Z,4.80
2023-03-03T02:31:14.953Z,4.80
2023-03-03T02:36:20.213Z,4.70
2023-03-03T02:41:35.685Z,4.70
2023-03-03T02:46:40.477Z,4.70
2023-03-03T02:51:45.946Z,4.70
2023-03-03T02:56:55.632Z,4.70
2023-03-03T03:01:59.003Z,4.70
2023-03-03T03:07:01.561Z,4.70
2023-03-03T03:12:06.731Z,4.60
2023-03-03T03:17:09.339Z,4.60
2023-03-03T03:22:14.412Z,4.50
2023-03-03T03:27:20.755Z,4.40
2023-03-03T03:32:26.521Z,4.30
2023-03-03T03:37:29.274Z,4.20
2023-03-03T03:42:35.332Z,4.20
2023-03-03T03:47:38.937Z,4.20
2023-03-03T03:52:47.942Z,4.10
2023-03-03T03:57:55.690Z,4.10
2023-03-03T04:02:58.237Z,4.00
2023-03-03T04:08:00.906Z,4.00
2023-03-03T04:13:05.772Z,3.90
2023-03-03T04:18:08.737Z,4.00
2023-03-03T04:23:14.443Z,4.00
2023-03-03T04:28:20.750Z,4.00
2023-03-03T04:33:27.273Z,4.00
2023-03-03T04:38:34.605Z,3.90
2023-03-03T04:43:38.716Z,3.90
2023-03-03T04:48:41.662Z,3.80
2023-03-03T04:54:43.583Z,3.70
2023-03-03T05:06:27.771Z,3.70
2023-03-03T05:11:31.272Z,3.70
2023-03-03T05:16:33.471Z,3.60
2023-03-03T05:26:46.555Z,3.50
2023-03-03T05:31:48.870Z,3.60
2023-03-03T05:36:51.410Z,3.50
2023-03-03T05:41:55.017Z,3.50
2023-03-03T05:46:57.155Z,3.50
2023-03-03T05:51:59.931Z,3.40
2023-03-03T05:57:03.481Z,3.30
2023-03-03T06:02:05.827Z,3.30
2023-03-03T06:07:07.965Z,3.30
2023-03-03T06:12:11.556Z,3.30
2023-03-03T06:17:13.851Z,3.40
2023-03-03T06:22:16.218Z,3.40
2023-03-03T06:27:19.846Z,3.40
2023-03-03T06:32:22.143Z,3.30
2023-03-03T06:37:24.366Z,3.40
2023-03-03T06:42:28.062Z,3.30
2023-03-03T06:47:30.261Z,3.40
2023-03-03T06:52:32.405Z,3.40
2023-03-03T06:57:35.974Z,3.40
2023-03-03T07:02:38.212Z,3.40
2023-03-03T07:07:40.412Z,3.50
2023-03-03T07:12:44.126Z,3.60
2023-03-03T07:17:50.499Z,3.60
2023-03-03T07:22:53.140Z,3.80
2023-03-03T07:28:00.290Z,3.80
2023-03-03T07:33:02.274Z,3.90
2023-03-03T07:38:24.361Z,4.00
2023-03-03T07:43:39.837Z,4.10
2023-03-03T07:48:43.406Z,4.20
2023-03-03T07:53:45.620Z,4.30
2023-03-03T07:58:49.432Z,4.50
2023-03-03T08:03:52.564Z,4.60
2023-03-03T08:08:55.318Z,4.70
2023-03-03T08:13:59.032Z,4.90
2023-03-03T08:19:03.630Z,5.10
2023-03-03T08:24:06.450Z,5.50
2023-03-03T08:29:10.290Z,5.70
2023-03-03T08:34:12.566Z,5.90
2023-03-03T08:39:14.839Z,6.10
2023-03-03T08:44:18.444Z,6.40
2023-03-03T08:49:21.685Z,6.80
2023-03-03T08:54:24.284Z,7.20
2023-03-03T08:59:28.016Z,7.40
2023-03-03T09:04:30.296Z,7.50
2023-03-03T09:09:32.446Z,7.40
2023-03-03T09:14:35.983Z,7.40
2023-03-03T09:19:38.529Z,7.40
2023-03-03T09:24:43.122Z,7.40
2023-03-03T09:29:46.846Z,7.30
2023-03-03T09:34:49.129Z,7.40
2023-03-03T09:39:53.633Z,7.30
2023-03-03T09:45:26.853Z,7.30
2023-03-03T09:50:41.275Z,7.30
2023-03-03T09:55:51.051Z,7.40
2023-03-03T10:01:08.709Z,7.50
2023-03-03T10:06:20.836Z,7.80
2023-03-03T10:11:29.031Z,8.10
2023-03-03T10:16:51.936Z,8.30
2023-03-03T10:22:05.748Z,8.50
2023-03-03T10:27:25.015Z,8.70
2023-03-03T10:32:46.993Z,8.90
2023-03-03T10:38:02.864Z,9.10
2023-03-03T10:43:29.820Z,9.20
2023-03-03T10:48:51.321Z,9.30
2023-03-03T10:54:15.591Z,9.40
2023-03-03T10:59:51.627Z,9.50
2023-03-03T11:05:14.009Z,9.60
2023-03-03T11:10:28.099Z,9.70
2023-03-03T11:15:41.778Z,9.80
2023-03-03T11:20:55.651Z,10.10
2023-03-03T11:26:09.323Z,10.40
2023-03-03T11:31:20.083Z,10.70
2023-03-03T11:36:28.110Z,11.00
2023-03-03T11:41:35.083Z,11.20
2023-03-03T11:46:44.945Z,11.40
2023-03-03T11:52:00.559Z,11.60
2023-03-03T11:57:16.507Z,11.90
2023-03-03T12:02:35.212Z,12.10
2023-03-03T12:07:50.614Z,12.10
2023-03-03T12:13:03.184Z,12.10
2023-03-03T12:18:23.561Z,12.00
2023-03-03T12:23:46.821Z,12.00
2023-03-03T12:28:55.029Z,12.00
2023-03-03T12:34:02.339Z,12.10
2023-03-03T12:39:08.974Z,12.30
2023-03-03T12:44:19.113Z,12.60
2023-03-03T12:49:28.194Z,12.80
2023-03-03T12:54:53.790Z,12.90
2023-03-03T13:00:18.308Z,13.00
2023-03-03T13:05:25.016Z,13.00
2023-03-03T13:10:37.744Z,12.90
2023-03-03T13:15:55.424Z,12.80
2023-03-03T13:21:04.797Z,12.80
2023-03-03T13:26:17.191Z,12.70
2023-03-03T13:31:22.801Z,12.70
2023-03-03T13:36:39.021Z,12.70
2023-03-03T13:41:49.248Z,12.70
2023-03-03T13:47:01.332Z,12.70
2023-03-03T13:52:07.844Z,12.60
2023-03-03T13:57:26.005Z,12.50
2023-03-03T14:02:58.143Z,12.50
2023-03-03T14:08:06.751Z,12.50
2023-03-03T14:13:13.012Z,12.60
2023-03-03T14:18:24.735Z,12.50
2023-03-03T14:23:32.814Z,12.50
2023-03-03T14:28:42.192Z,12.30
2023-03-03T14:33:57.053Z,12.20
2023-03-03T14:38:59.606Z,12.10
2023-03-03T14:44:24.917Z,12.00
2023-03-03T14:49:31.987Z,11.90
2023-03-03T14:54:40.040Z,11.80
2023-03-03T14:59:59.724Z,11.70
2023-03-03T15:05:29.568Z,11.60
2023-03-03T15:10:34.613Z,11.50
2023-03-03T15:15:52.270Z,11.40
2023-03-03T15:21:02.150Z,11.20
2023-03-03T15:26:10.411Z,11.10
2023-03-03T15:31:22.510Z,11.00
2023-03-03T15:36:31.404Z,11.00
2023-03-03T15:41:43.613Z,10.90
2023-03-03T15:47:21.210Z,10.90
2023-03-03T15:52:37.265Z,10.80
2023-03-03T15:57:48.756Z,10.80
2023-03-03T16:02:57.753Z,10.80
2023-03-03T16:08:09.165Z,10.70
2023-03-03T16:13:41.602Z,10.70
2023-03-03T16:18:58.432Z,10.60
2023-03-03T16:24:06.885Z,10.60
2023-03-03T16:29:42.752Z,10.60
2023-03-03T16:34:56.904Z,10.50
2023-03-03T16:40:11.194Z,10.50
2023-03-03T16:45:22.548Z,10.40
2023-03-03T16:50:31.661Z,10.40
2023-03-03T16:55:42.679Z,10.40
2023-03-03T17:00:54.053Z,10.30
2023-03-03T17:06:04.156Z,10.20
2023-03-03T17:11:17.348Z,10.20
2023-03-03T17:16:28.429Z,10.10
2023-03-03T17:21:46.839Z,10.10
2023-03-03T17:27:04.038Z,10.00
2023-03-03T17:32:11.774Z,9.90
2023-03-03T17:37:23.878Z,9.90
2023-03-03T17:42:37.648Z,9.80
2023-03-03T17:48:05.109Z,9.70
2023-03-03T17:53:35.595Z,9.70
2023-03-03T17:59:27.354Z,9.70
2023-03-03T18:04:46.602Z,9.60
2023-03-03T18:10:21.966Z,9.50
2023-03-03T18:15:39.954Z,9.50
2023-03-03T18:21:02.859Z,9.50
2023-03-03T18:26:38.394Z,9.40
2023-03-03T18:31:50.442Z,9.40
2023-03-03T18:36:55.327Z,9.40
2023-03-03T18:42:35.167Z,9.40
2023-03-03T18:48:05.407Z,9.40
2023-03-03T18:53:22.827Z,9.40
2023-03-03T18:58:34.755Z,9.40
2023-03-03T19:03:56.544Z,9.40
2023-03-03T19:08:59.241Z,9.40
2023-03-03T19:14:33.396Z,9.40
2023-03-03T19:20:01.598Z,9.40
2023-03-03T19:25:23.851Z,9.40
2023-03-03T19:30:42.747Z,9.40
2023-03-03T19:36:06.668Z,9.40
2023-03-03T19:41:27.903Z,9.40
2023-03-03T19:46:44.286Z,9.30
2023-03-03T19:51:55.592Z,9.30
2023-03-03T19:57:01.659Z,9.30
2023-03-03T20:02:26.768Z,9.30
2023-03-03T20:07:40.724Z,9.30
2023-03-03T20:12:54.669Z,9.30
2023-03-03T20:18:29.150Z,9.30
2023-03-03T20:23:41.599Z,9.30
2023-03-03T20:29:22.227Z,9.40
2023-03-03T20:34:35.602Z,9.40
2023-03-03T20:39:52.568Z,9.40
2023-03-03T20:45:10.326Z,9.40
2023-03-03T20:50:23.142Z,9.40
2023-03-03T20:55:34.712Z,9.30
2023-03-03T21:00:40.985Z,9.40
2023-03-03T21:05:57.659Z,9.40
2023-03-03T21:11:01.445Z,9.40
2023-03-03T21:16:09.049Z,9.40
2023-03-03T21:21:11.618Z,9.40
2023-03-03T21:26:15.063Z,9.30
2023-03-03T21:31:17.543Z,9.30
2023-03-03T21:36:22.381Z,9.30
2023-03-03T21:41:26.925Z,9.20
2023-03-03T21:46:29.130Z,9.10
2023-03-03T21:51:31.258Z,8.90
2023-03-03T21:56:34.807Z,8.80
2023-03-03T22:01:38.358Z,8.70
2023-03-03T22:06:40.791Z,8.60
2023-03-03T22:11:44.595Z,8.50
2023-03-03T22:16:46.903Z,8.50
2023-03-03T22:21:49.073Z,8.60
2023-03-03T22:26:52.742Z,8.60
2023-03-03T22:31:54.936Z,8.60
2023-03-03T22:36:57.146Z,8.60
2023-03-03T22:42:00.778Z,8.60
2023-03-03T22:47:03.173Z,8.60
2023-03-03T22:52:05.569Z,8.70
2023-03-03T22:57:09.250Z,8.70
2023-03-03T23:02:11.306Z,8.70
2023-03-03T23:07:13.373Z,8.70
2023-03-03T23:12:16.978Z,8.70
2023-03-03T23:17:19.188Z,8.70
2023-03-03T23:22:21.343Z,8.70
2023-03-03T23:27:24.915Z,8.70
2023-03-03T23:32:27.188Z,8.80
2023-03-03T23:37:29.446Z,8.80
2023-03-03T23:42:33.225Z,8.80
2023-03-03T23:47:35.624Z,8.80
2023-03-03T23:52:37.810Z,8.80
2023-03-03T23:57:41.344Z,8.80
